Time;durP1;ratioP1;P1;durP2;ratioP2;P2;SDS_P1;SDS_P2;PMS_P1;PMS_P2;Temp;Humidity;BMP_temperature;BMP_pressure;BME280_temperature;BME280_humidity;BME280_pressure;Samples;Min_cycle;Max_cycle;Signal;HPM_P1;HPM_P2
2023/06/09 00:02:27;;;;;;;11.20;4.90;;;;;;;-128.00;-1.00;-1.00;106170;1256;1013153;-68
2023/06/09 00:05:18;;;;;;;8.30;4.20;;;;;;;-128.00;-1.00;-1.00;106434;1256;1012739;-70
2023/06/09 00:08:06;;;;;;;10.30;4.40;;;;;;;-128.00;-1.00;-1.00;106358;1256;1013727;-68
2023/06/09 00:10:54;;;;;;;9.10;4.50;;;;;;;-128.00;-1.00;-1.00;106381;1257;1009376;-68
2023/06/09 00:13:40;;;;;;;10.90;4.70;;;;;;;-128.00;-1.00;-1.00;106334;1257;1010772;-69
2023/06/09 00:16:28;;;;;;;11.20;4.80;;;;;;;-128.00;-1.00;-1.00;106321;1257;1012422;-70
2023/06/09 00:19:17;;;;;;;9.70;4.80;;;;;;;-128.00;-1.00;-1.00;106367;1257;1012619;-69
2023/06/09 00:22:13;;;;;;;12.20;4.50;;;;;;;-128.00;-1.00;-1.00;106368;1258;1012849;-72
2023/06/09 00:25:00;;;;;;;8.90;4.10;;;;;;;-128.00;-1.00;-1.00;106288;1257;1010789;-68
2023/06/09 00:27:46;;;;;;;10.00;4.50;;;;;;;-128.00;-1.00;-1.00;106358;1257;1010912;-69
2023/06/09 00:30:33;;;;;;;10.90;4.80;;;;;;;-128.00;-1.00;-1.00;106391;1257;1012491;-67
2023/06/09 00:33:26;;;;;;;9.10;4.30;;;;;;;-128.00;-1.00;-1.00;106280;1257;1012036;-69
2023/06/09 00:36:14;;;;;;;10.30;4.50;;;;;;;-128.00;-1.00;-1.00;106350;1257;1013568;-70
2023/06/09 00:39:00;;;;;;;11.20;4.60;;;;;;;-128.00;-1.00;-1.00;106400;1257;1009509;-69
2023/06/09 00:41:49;;;;;;;9.00;4.20;;;;;;;-128.00;-1.00;-1.00;106226;1259;1012162;-68
2023/06/09 00:44:36;;;;;;;10.00;4.70;;;;;;;-128.00;-1.00;-1.00;106400;1254;1013018;-71
2023/06/09 00:47:23;;;;;;;11.20;4.80;;;;;;;-128.00;-1.00;-1.00;106532;1255;1012604;-68
2023/06/09 00:50:12;;;;;;;11.40;4.40;;;;;;;-128.00;-1.00;-1.00;106535;1253;1012812;-69
2023/06/09 00:52:59;;;;;;;10.00;4.40;;;;;;;-128.00;-1.00;-1.00;106586;1254;1009607;-66
2023/06/09 00:55:46;;;;;;;11.20;4.60;;;;;;;-128.00;-1.00;-1.00;106531;1253;1010686;-66
2023/06/09 00:58:33;;;;;;;11.30;4.20;;;;;;;-128.00;-1.00;-1.00;106457;1254;1013262;-65
2023/06/09 01:01:20;;;;;;;10.20;4.50;;;;;;;-128.00;-1.00;-1.00;106473;1253;1012180;-69
2023/06/09 01:04:08;;;;;;;11.30;4.30;;;;;;;-128.00;-1.00;-1.00;106493;1255;1012985;-68
2023/06/09 01:07:24;;;;;;;10.60;4.80;;;;;;;-128.00;-1.00;-1.00;106550;1255;1010407;-68
2023/06/09 01:10:24;;;;;;;9.10;4.30;;;;;;;-128.00;-1.00;-1.00;106535;1254;1010595;-71
2023/06/09 01:13:25;;;;;;;9.80;4.70;;;;;;;-128.00;-1.00;-1.00;106536;1255;1012775;-69
2023/06/09 01:16:28;;;;;;;10.80;5.20;;;;;;;-128.00;-1.00;-1.00;106649;1254;1011516;-71
2023/06/09 01:19:32;;;;;;;8.90;3.90;;;;;;;-128.00;-1.00;-1.00;106510;1255;1013124;-70
2023/06/09 01:22:57;;;;;;;10.60;4.60;;;;;;;-128.00;-1.00;-1.00;106387;1258;1011245;-68
2023/06/09 01:25:47;;;;;;;8.00;4.10;;;;;;;-128.00;-1.00;-1.00;106426;1257;1011520;-71
2023/06/09 01:28:35;;;;;;;10.00;4.40;;;;;;;-128.00;-1.00;-1.00;106284;1259;1012947;-69
2023/06/09 01:31:24;;;;;;;11.10;5.10;;;;;;;-128.00;-1.00;-1.00;106352;1258;1012717;-67
2023/06/09 01:34:14;;;;;;;10.50;4.30;;;;;;;-128.00;-1.00;-1.00;106392;1258;1013124;-69
2023/06/09 01:37:01;;;;;;;9.60;4.10;;;;;;;-128.00;-1.00;-1.00;106383;1258;1010086;-70
2023/06/09 01:39:50;;;;;;;11.00;4.60;;;;;;;-128.00;-1.00;-1.00;106410;1259;1010540;-71
2023/06/09 01:42:37;;;;;;;10.90;4.70;;;;;;;-128.00;-1.00;-1.00;106409;1257;1013513;-69
2023/06/09 01:45:25;;;;;;;11.60;4.30;;;;;;;-128.00;-1.00;-1.00;106403;1259;1012503;-72
2023/06/09 01:48:18;;;;;;;10.30;4.30;;;;;;;-128.00;-1.00;-1.00;106393;1258;1013180;-69
2023/06/09 01:51:18;;;;;;;11.70;4.20;;;;;;;-128.00;-1.00;-1.00;106412;1257;1010800;-69
2023/06/09 01:54:12;;;;;;;8.40;3.80;;;;;;;-128.00;-1.00;-1.00;106477;1255;1011644;-69
2023/06/09 01:57:19;;;;;;;11.60;4.50;;;;;;;-128.00;-1.00;-1.00;106514;1254;1012740;-68
2023/06/09 02:00:08;;;;;;;11.30;4.70;;;;;;;-128.00;-1.00;-1.00;106525;1261;1012870;-69
2023/06/09 02:03:05;;;;;;;12.20;4.50;;;;;;;-128.00;-1.00;-1.00;106678;1254;1012555;-70
2023/06/09 02:05:55;;;;;;;10.70;4.20;;;;;;;-128.00;-1.00;-1.00;106599;1254;1010116;-67
2023/06/09 02:08:43;;;;;;;9.10;4.30;;;;;;;-128.00;-1.00;-1.00;106443;1257;1010321;-71
2023/06/09 02:11:30;;;;;;;8.20;3.70;;;;;;;-128.00;-1.00;-1.00;106462;1256;1012168;-70
2023/06/09 02:14:17;;;;;;;13.40;4.20;;;;;;;-128.00;-1.00;-1.00;106505;1255;1012324;-68
2023/06/09 02:17:04;;;;;;;9.30;4.00;;;;;;;-128.00;-1.00;-1.00;106587;1254;1012696;-68
2023/06/09 02:19:51;;;;;;;10.40;4.50;;;;;;;-128.00;-1.00;-1.00;106489;1254;1010092;-68
2023/06/09 02:22:38;;;;;;;12.90;4.50;;;;;;;-128.00;-1.00;-1.00;106454;1254;1011727;-66
2023/06/09 02:25:28;;;;;;;9.10;4.30;;;;;;;-128.00;-1.00;-1.00;106449;1256;1012410;-68
2023/06/09 02:28:16;;;;;;;11.40;4.60;;;;;;;-128.00;-1.00;-1.00;106527;1254;1011893;-66
2023/06/09 02:31:04;;;;;;;12.40;4.60;;;;;;;-128.00;-1.00;-1.00;106629;1254;1012076;-69
2023/06/09 02:33:52;;;;;;;10.90;4.20;;;;;;;-128.00;-1.00;-1.00;106532;1255;1009142;-67
2023/06/09 02:36:42;;;;;;;9.90;4.40;;;;;;;-128.00;-1.00;-1.00;106460;1258;1010788;-66
2023/06/09 02:39:29;;;;;;;9.90;4.30;;;;;;;-128.00;-1.00;-1.00;106585;1259;1013055;-67
2023/06/09 02:42:16;;;;;;;9.00;3.80;;;;;;;-128.00;-1.00;-1.00;106794;1258;1011959;-67
2023/06/09 02:45:03;;;;;;;9.90;4.10;;;;;;;-128.00;-1.00;-1.00;106544;1254;1013401;-70
2023/06/09 02:47:51;;;;;;;10.70;4.20;;;;;;;-128.00;-1.00;-1.00;106618;1255;1009938;-68
2023/06/09 02:50:38;;;;;;;10.20;4.90;;;;;;;-128.00;-1.00;-1.00;106416;1256;1010728;-67
2023/06/09 02:53:29;;;;;;;9.50;4.00;;;;;;;-128.00;-1.00;-1.00;106515;1254;1012136;-69
2023/06/09 02:56:17;;;;;;;10.40;4.20;;;;;;;-128.00;-1.00;-1.00;106573;1254;1012515;-68
2023/06/09 02:59:07;;;;;;;9.30;4.10;;;;;;;-128.00;-1.00;-1.00;106481;1254;1012352;-69
2023/06/09 03:01:54;;;;;;;9.30;4.10;;;;;;;-128.00;-1.00;-1.00;106620;1254;1009729;-68
2023/06/09 03:04:40;;;;;;;12.10;4.10;;;;;;;-128.00;-1.00;-1.00;106540;1254;1010757;-67
2023/06/09 03:07:27;;;;;;;12.90;4.20;;;;;;;-128.00;-1.00;-1.00;106593;1258;1012851;-67
2023/06/09 03:10:15;;;;;;;9.70;4.30;;;;;;;-128.00;-1.00;-1.00;106458;1260;1012497;-68
2023/06/09 03:13:03;;;;;;;9.40;4.30;;;;;;;-128.00;-1.00;-1.00;106613;1254;1013392;-67
2023/06/09 03:15:50;;;;;;;11.80;4.50;;;;;;;-128.00;-1.00;-1.00;106505;1254;1010394;-67
2023/06/09 03:18:37;;;;;;;10.10;4.20;;;;;;;-128.00;-1.00;-1.00;106496;1254;1010710;-66
2023/06/09 03:21:24;;;;;;;12.00;4.20;;;;;;;-128.00;-1.00;-1.00;106512;1254;1013347;-66
2023/06/09 03:24:12;;;;;;;9.70;4.10;;;;;;;-128.00;-1.00;-1.00;106493;1254;1012794;-67
2023/06/09 03:26:59;;;;;;;12.80;4.30;;;;;;;-128.00;-1.00;-1.00;106443;1255;1013088;-69
2023/06/09 03:29:47;;;;;;;10.50;3.90;;;;;;;-128.00;-1.00;-1.00;106451;1254;1009437;-67
2023/06/09 03:32:34;;;;;;;10.30;4.20;;;;;;;-128.00;-1.00;-1.00;106519;1254;1010503;-68
2023/06/09 03:35:21;;;;;;;11.80;4.40;;;;;;;-128.00;-1.00;-1.00;106450;1254;1012787;-67
2023/06/09 03:38:08;;;;;;;9.00;4.10;;;;;;;-128.00;-1.00;-1.00;106469;1254;1012033;-70
2023/06/09 03:40:55;;;;;;;10.40;3.80;;;;;;;-128.00;-1.00;-1.00;106440;1256;1012679;-69
2023/06/09 03:43:42;;;;;;;9.30;4.40;;;;;;;-128.00;-1.00;-1.00;106501;1254;1010009;-66
2023/06/09 03:46:29;;;;;;;9.90;3.60;;;;;;;-128.00;-1.00;-1.00;106584;1254;1010865;-66
2023/06/09 03:49:17;;;;;;;9.90;3.90;;;;;;;-128.00;-1.00;-1.00;106517;1259;1012654;-68
2023/06/09 03:52:06;;;;;;;11.30;3.90;;;;;;;-128.00;-1.00;-1.00;106508;1262;1011928;-69
2023/06/09 03:54:53;;;;;;;11.10;4.30;;;;;;;-128.00;-1.00;-1.00;106529;1254;1012992;-65
2023/06/09 03:57:41;;;;;;;11.00;3.80;;;;;;;-128.00;-1.00;-1.00;106716;1254;1009891;-67
2023/06/09 04:00:27;;;;;;;9.90;3.90;;;;;;;-128.00;-1.00;-1.00;106726;1259;1010441;-67
2023/06/09 04:03:17;;;;;;;10.60;4.10;;;;;;;-128.00;-1.00;-1.00;106675;1254;1012323;-69
2023/06/09 04:06:04;;;;;;;8.80;4.00;;;;;;;-128.00;-1.00;-1.00;106560;1254;1012043;-71
2023/06/09 04:08:51;;;;;;;10.00;4.20;;;;;;;-128.00;-1.00;-1.00;106390;1260;1012501;-71
2023/06/09 04:11:39;;;;;;;11.60;4.30;;;;;;;-128.00;-1.00;-1.00;106302;1254;1009794;-70
2023/06/09 04:14:26;;;;;;;11.20;4.20;;;;;;;-128.00;-1.00;-1.00;106483;1253;1011243;-72
2023/06/09 04:17:14;;;;;;;11.70;4.20;;;;;;;-128.00;-1.00;-1.00;106464;1254;1012371;-71
2023/06/09 04:20:04;;;;;;;10.80;4.20;;;;;;;-128.00;-1.00;-1.00;106485;1262;1012170;-71
2023/06/09 04:22:52;;;;;;;13.20;4.10;;;;;;;-128.00;-1.00;-1.00;106528;1255;1012661;-70
2023/06/09 04:25:53;;;;;;;11.40;3.90;;;;;;;-128.00;-1.00;-1.00;106455;1254;1008833;-69
2023/06/09 04:28:41;;;;;;;9.20;3.90;;;;;;;-128.00;-1.00;-1.00;106605;1254;1010302;-70
2023/06/09 04:31:33;;;;;;;10.90;3.90;;;;;;;-128.00;-1.00;-1.00;106464;1255;1012312;-67
2023/06/09 04:34:22;;;;;;;10.30;4.10;;;;;;;-128.00;-1.00;-1.00;106580;1254;1012711;-69
2023/06/09 04:37:10;;;;;;;9.00;3.90;;;;;;;-128.00;-1.00;-1.00;106540;1254;1012607;-70
2023/06/09 04:39:58;;;;;;;9.30;3.60;;;;;;;-128.00;-1.00;-1.00;106492;1254;1010065;-70
2023/06/09 04:42:45;;;;;;;10.10;3.90;;;;;;;-128.00;-1.00;-1.00;106517;1259;1011740;-72
2023/06/09 04:45:34;;;;;;;13.10;4.10;;;;;;;-128.00;-1.00;-1.00;106507;1254;1012872;-69
2023/06/09 04:48:29;;;;;;;10.80;3.70;;;;;;;-128.00;-1.00;-1.00;106484;1261;1012542;-71
2023/06/09 04:51:16;;;;;;;10.10;3.80;;;;;;;-128.00;-1.00;-1.00;106463;1254;1014187;-68
2023/06/09 04:54:06;;;;;;;10.70;4.00;;;;;;;-128.00;-1.00;-1.00;106501;1254;1009606;-70
2023/06/09 04:56:57;;;;;;;11.50;3.40;;;;;;;-128.00;-1.00;-1.00;106560;1254;1011772;-72
2023/06/09 04:59:45;;;;;;;10.10;3.60;;;;;;;-128.00;-1.00;-1.00;106578;1254;1013464;-73
2023/06/09 05:02:32;;;;;;;11.70;3.70;;;;;;;-128.00;-1.00;-1.00;106421;1264;1011658;-74
2023/06/09 05:05:21;;;;;;;10.40;3.70;;;;;;;-128.00;-1.00;-1.00;106477;1254;1012968;-73
2023/06/09 05:08:08;;;;;;;8.70;3.50;;;;;;;-128.00;-1.00;-1.00;106492;1254;1010667;-73
2023/06/09 05:10:56;;;;;;;9.10;3.40;;;;;;;-128.00;-1.00;-1.00;106493;1254;1011152;-73
2023/06/09 05:13:43;;;;;;;8.70;3.40;;;;;;;-128.00;-1.00;-1.00;106577;1254;1012144;-70
2023/06/09 05:16:29;;;;;;;13.30;3.50;;;;;;;-128.00;-1.00;-1.00;106597;1254;1011934;-69
2023/06/09 05:19:16;;;;;;;10.60;3.30;;;;;;;-128.00;-1.00;-1.00;106562;1254;1013359;-70
2023/06/09 05:22:03;;;;;;;9.60;3.60;;;;;;;-128.00;-1.00;-1.00;106431;1256;1010295;-71
2023/06/09 05:24:50;;;;;;;8.80;3.40;;;;;;;-128.00;-1.00;-1.00;106693;1254;1010559;-71
2023/06/09 05:27:37;;;;;;;9.90;3.90;;;;;;;-128.00;-1.00;-1.00;106475;1257;1012221;-72
2023/06/09 05:30:27;;;;;;;9.00;3.40;;;;;;;-128.00;-1.00;-1.00;106474;1254;1012484;-71
2023/06/09 05:33:14;;;;;;;12.90;6.40;;;;;;;-128.00;-1.00;-1.00;106546;1254;1013207;-73
2023/06/09 05:36:01;;;;;;;10.90;4.00;;;;;;;-128.00;-1.00;-1.00;106768;1254;1009875;-74
2023/06/09 05:38:48;;;;;;;10.30;3.70;;;;;;;-128.00;-1.00;-1.00;106580;1254;1010588;-71
2023/06/09 05:41:35;;;;;;;9.80;3.50;;;;;;;-128.00;-1.00;-1.00;106438;1254;1012761;-73
2023/06/09 05:44:21;;;;;;;9.40;3.20;;;;;;;-128.00;-1.00;-1.00;106479;1258;1012984;-72
2023/06/09 05:47:08;;;;;;;10.70;3.30;;;;;;;-128.00;-1.00;-1.00;106559;1254;1012720;-72
2023/06/09 05:49:59;;;;;;;10.10;3.50;;;;;;;-128.00;-1.00;-1.00;106193;1260;1009506;-70
2023/06/09 05:52:45;;;;;;;9.20;3.50;;;;;;;-128.00;-1.00;-1.00;106322;1261;1010237;-70
2023/06/09 05:55:32;;;;;;;11.10;3.90;;;;;;;-128.00;-1.00;-1.00;106385;1260;1013021;-73
2023/06/09 05:58:22;;;;;;;11.10;3.80;;;;;;;-128.00;-1.00;-1.00;106200;1259;1013108;-72
2023/06/09 06:01:13;;;;;;;13.40;4.30;;;;;;;-128.00;-1.00;-1.00;106307;1260;1013598;-69
2023/06/09 06:04:00;;;;;;;10.40;3.00;;;;;;;-128.00;-1.00;-1.00;106200;1260;1009687;-71
2023/06/09 06:06:47;;;;;;;9.50;3.60;;;;;;;-128.00;-1.00;-1.00;106219;1259;1010885;-71
2023/06/09 06:09:34;;;;;;;10.00;3.60;;;;;;;-128.00;-1.00;-1.00;106156;1259;1013246;-70
2023/06/09 06:12:21;;;;;;;10.00;3.50;;;;;;;-128.00;-1.00;-1.00;106171;1259;1012650;-72
2023/06/09 06:15:08;;;;;;;7.60;3.30;;;;;;;-128.00;-1.00;-1.00;106107;1259;1013440;-71
2023/06/09 06:17:55;;;;;;;8.10;3.00;;;;;;;-128.00;-1.00;-1.00;106299;1259;1010160;-74
2023/06/09 06:20:42;;;;;;;9.50;3.20;;;;;;;-128.00;-1.00;-1.00;106346;1254;1010316;-72
2023/06/09 06:23:29;;;;;;;8.60;3.20;;;;;;;-128.00;-1.00;-1.00;106552;1254;1012601;-74
2023/06/09 06:26:17;;;;;;;11.00;3.30;;;;;;;-128.00;-1.00;-1.00;106454;1254;1013356;-72
2023/06/09 06:29:06;;;;;;;10.50;3.00;;;;;;;-128.00;-1.00;-1.00;106601;1254;1013030;-71
2023/06/09 06:31:54;;;;;;;9.40;3.40;;;;;;;-128.00;-1.00;-1.00;106470;1254;1009210;-69
2023/06/09 06:34:41;;;;;;;10.60;3.10;;;;;;;-128.00;-1.00;-1.00;106550;1254;1011878;-72
2023/06/09 06:37:28;;;;;;;10.70;3.40;;;;;;;-128.00;-1.00;-1.00;106406;1254;1012612;-69
2023/06/09 06:40:14;;;;;;;10.90;3.50;;;;;;;-128.00;-1.00;-1.00;106640;1259;1011864;-69
2023/06/09 06:43:02;;;;;;;10.10;3.30;;;;;;;-128.00;-1.00;-1.00;106400;1254;1012745;-74
2023/06/09 06:46:02;;;;;;;12.00;3.80;;;;;;;-128.00;-1.00;-1.00;106534;1254;1009728;-73
2023/06/09 06:48:48;;;;;;;10.70;3.40;;;;;;;-128.00;-1.00;-1.00;106435;1254;1011952;-71
2023/06/09 06:51:35;;;;;;;10.90;3.20;;;;;;;-128.00;-1.00;-1.00;106581;1254;1012726;-73
2023/06/09 06:54:21;;;;;;;12.40;3.50;;;;;;;-128.00;-1.00;-1.00;106432;1254;1012833;-70
2023/06/09 06:57:08;;;;;;;11.40;3.60;;;;;;;-128.00;-1.00;-1.00;106530;1254;1013828;-73
2023/06/09 06:59:54;;;;;;;11.20;3.40;;;;;;;-128.00;-1.00;-1.00;106571;1254;1010057;-70
2023/06/09 07:02:47;;;;;;;9.60;3.50;;;;;;;-128.00;-1.00;-1.00;106261;1259;1011242;-72
2023/06/09 07:05:36;;;;;;;9.70;3.80;;;;;;;-128.00;-1.00;-1.00;106217;1260;1012944;-69
2023/06/09 07:08:23;;;;;;;8.80;3.50;;;;;;;-128.00;-1.00;-1.00;106092;1262;1012215;-70
2023/06/09 07:11:10;;;;;;;9.70;3.50;;;;;;;-128.00;-1.00;-1.00;106187;1260;1013350;-72
2023/06/09 07:13:56;;;;;;;11.40;3.40;;;;;;;-128.00;-1.00;-1.00;106220;1260;1009137;-70
2023/06/09 07:16:43;;;;;;;11.60;3.30;;;;;;;-128.00;-1.00;-1.00;106187;1261;1010916;-71
2023/06/09 07:19:30;;;;;;;10.10;3.30;;;;;;;-128.00;-1.00;-1.00;106185;1260;1013650;-69
2023/06/09 07:22:16;;;;;;;12.10;3.70;;;;;;;-128.00;-1.00;-1.00;106133;1260;1012694;-72
2023/06/09 07:25:03;;;;;;;12.90;3.70;;;;;;;-128.00;-1.00;-1.00;106111;1260;1012739;-70
2023/06/09 07:27:49;;;;;;;10.10;3.70;;;;;;;-128.00;-1.00;-1.00;106245;1260;1009832;-70
2023/06/09 07:30:35;;;;;;;9.80;3.30;;;;;;;-128.00;-1.00;-1.00;106131;1260;1011460;-73
2023/06/09 07:33:22;;;;;;;9.10;3.50;;;;;;;-128.00;-1.00;-1.00;106247;1259;1012324;-70
2023/06/09 07:36:10;;;;;;;11.90;3.40;;;;;;;-128.00;-1.00;-1.00;106419;1257;1012691;-69
2023/06/09 07:38:57;;;;;;;8.80;3.40;;;;;;;-128.00;-1.00;-1.00;106482;1254;1012436;-73
2023/06/09 07:41:44;;;;;;;9.10;3.30;;;;;;;-128.00;-1.00;-1.00;106587;1254;1009823;-71
2023/06/09 07:44:30;;;;;;;10.40;3.20;;;;;;;-128.00;-1.00;-1.00;106483;1254;1010883;-74
2023/06/09 07:47:17;;;;;;;11.60;3.60;;;;;;;-128.00;-1.00;-1.00;106388;1254;1011920;-71
2023/06/09 07:50:06;;;;;;;9.70;4.10;;;;;;;-128.00;-1.00;-1.00;106511;1257;1013859;-72
2023/06/09 07:52:53;;;;;;;15.30;4.10;;;;;;;-128.00;-1.00;-1.00;106526;1254;1012815;-72
2023/06/09 07:55:40;;;;;;;10.40;3.60;;;;;;;-128.00;-1.00;-1.00;106352;1254;1009264;-71
2023/06/09 07:58:28;;;;;;;10.90;3.30;;;;;;;-128.00;-1.00;-1.00;106527;1254;1011955;-74
2023/06/09 08:01:14;;;;;;;9.80;3.50;;;;;;;-128.00;-1.00;-1.00;106645;1254;1012800;-74
2023/06/09 08:04:02;;;;;;;10.90;3.60;;;;;;;-128.00;-1.00;-1.00;106463;1254;1012277;-69
2023/06/09 08:06:49;;;;;;;9.60;3.30;;;;;;;-128.00;-1.00;-1.00;106476;1254;1012286;-79
2023/06/09 08:09:37;;;;;;;11.30;3.60;;;;;;;-128.00;-1.00;-1.00;106543;1254;1009439;-74
2023/06/09 08:12:23;;;;;;;9.90;3.70;;;;;;;-128.00;-1.00;-1.00;106415;1254;1011044;-72
2023/06/09 08:15:11;;;;;;;10.50;4.00;;;;;;;-128.00;-1.00;-1.00;106446;1254;1012414;-76
2023/06/09 08:17:59;;;;;;;9.60;4.50;;;;;;;-128.00;-1.00;-1.00;106433;1254;1012299;-80
2023/06/09 08:20:45;;;;;;;8.90;3.60;;;;;;;-128.00;-1.00;-1.00;106397;1257;1012605;-79
2023/06/09 08:23:35;;;;;;;10.30;3.50;;;;;;;-128.00;-1.00;-1.00;106229;1258;1009654;-78
2023/06/09 08:26:22;;;;;;;10.20;3.60;;;;;;;-128.00;-1.00;-1.00;106113;1262;1011930;-78
2023/06/09 08:29:11;;;;;;;11.10;6.10;;;;;;;-128.00;-1.00;-1.00;106081;1262;1012089;-78
2023/06/09 08:32:02;;;;;;;11.60;3.90;;;;;;;-128.00;-1.00;-1.00;106129;1264;1012377;-78
2023/06/09 08:34:53;;;;;;;10.20;3.60;;;;;;;-128.00;-1.00;-1.00;106195;1262;1012587;-78
2023/06/09 08:37:44;;;;;;;12.80;4.40;;;;;;;-128.00;-1.00;-1.00;106123;1262;1009798;-77
2023/06/09 08:40:35;;;;;;;12.70;3.80;;;;;;;-128.00;-1.00;-1.00;106123;1262;1010906;-79
2023/06/09 08:43:27;;;;;;;9.10;3.70;;;;;;;-128.00;-1.00;-1.00;106135;1263;1012687;-78
2023/06/09 08:46:24;;;;;;;10.00;3.70;;;;;;;-128.00;-1.00;-1.00;106154;1262;1012111;-79
2023/06/09 08:49:16;;;;;;;11.80;4.50;;;;;;;-128.00;-1.00;-1.00;106115;1262;1012692;-78
2023/06/09 08:52:08;;;;;;;9.40;3.50;;;;;;;-128.00;-1.00;-1.00;106067;1260;1009390;-77
2023/06/09 08:55:00;;;;;;;10.60;3.70;;;;;;;-128.00;-1.00;-1.00;106208;1259;1011436;-77
2023/06/09 08:57:49;;;;;;;10.50;3.60;;;;;;;-128.00;-1.00;-1.00;106244;1260;1012161;-76
2023/06/09 09:00:38;;;;;;;11.60;4.10;;;;;;;-128.00;-1.00;-1.00;106301;1258;1012191;-76
2023/06/09 09:03:27;;;;;;;9.10;3.80;;;;;;;-128.00;-1.00;-1.00;106249;1260;1013737;-76
2023/06/09 09:06:19;;;;;;;9.20;3.30;;;;;;;-128.00;-1.00;-1.00;105878;1260;1009565;-76
2023/06/09 09:09:13;;;;;;;12.60;3.80;;;;;;;-128.00;-1.00;-1.00;106201;1260;1010897;-80
2023/06/09 09:12:04;;;;;;;11.90;3.60;;;;;;;-128.00;-1.00;-1.00;106212;1260;1012715;-78
2023/06/09 09:14:53;;;;;;;11.70;3.70;;;;;;;-128.00;-1.00;-1.00;106061;1261;1012761;-78
2023/06/09 09:17:44;;;;;;;11.30;3.80;;;;;;;-128.00;-1.00;-1.00;106084;1260;1013226;-75
2023/06/09 09:20:35;;;;;;;11.80;3.70;;;;;;;-128.00;-1.00;-1.00;106185;1260;1010119;-76
2023/06/09 09:23:33;;;;;;;10.00;4.00;;;;;;;-128.00;-1.00;-1.00;106170;1260;1011441;-78
2023/06/09 09:26:30;;;;;;;12.00;3.80;;;;;;;-128.00;-1.00;-1.00;106113;1260;1012885;-77
2023/06/09 09:29:20;;;;;;;11.90;4.10;;;;;;;-128.00;-1.00;-1.00;106215;1261;1012012;-76
2023/06/09 09:32:08;;;;;;;9.40;3.50;;;;;;;-128.00;-1.00;-1.00;106258;1260;1013483;-78
2023/06/09 09:34:55;;;;;;;9.80;3.80;;;;;;;-128.00;-1.00;-1.00;106225;1259;1009915;-74
2023/06/09 09:37:43;;;;;;;9.60;4.10;;;;;;;-128.00;-1.00;-1.00;106320;1259;1010190;-79
2023/06/09 09:40:30;;;;;;;10.50;4.00;;;;;;;-128.00;-1.00;-1.00;106450;1254;1012484;-80
2023/06/09 09:43:19;;;;;;;10.50;3.90;;;;;;;-128.00;-1.00;-1.00;106547;1256;1012218;-77
2023/06/09 09:46:08;;;;;;;17.70;10.50;;;;;;;-128.00;-1.00;-1.00;106516;1254;1012658;-75
2023/06/09 09:48:56;;;;;;;18.80;13.30;;;;;;;-128.00;-1.00;-1.00;106515;1254;1009803;-77
2023/06/09 09:51:43;;;;;;;9.80;4.10;;;;;;;-128.00;-1.00;-1.00;106480;1254;1011027;-76
2023/06/09 09:54:31;;;;;;;9.20;3.80;;;;;;;-128.00;-1.00;-1.00;106197;1258;1012803;-76
2023/06/09 09:57:20;;;;;;;8.60;3.80;;;;;;;-128.00;-1.00;-1.00;106325;1258;1012220;-78
2023/06/09 10:00:13;;;;;;;8.50;3.70;;;;;;;-128.00;-1.00;-1.00;106327;1259;1012596;-75
2023/06/09 10:03:01;;;;;;;9.70;3.40;;;;;;;-128.00;-1.00;-1.00;106188;1259;1010105;-74
2023/06/09 10:05:50;;;;;;;12.80;4.00;;;;;;;-128.00;-1.00;-1.00;106250;1258;1011202;-78
2023/06/09 10:08:42;;;;;;;13.80;3.90;;;;;;;-128.00;-1.00;-1.00;106263;1259;1013042;-75
2023/06/09 10:11:34;;;;;;;11.30;3.80;;;;;;;-128.00;-1.00;-1.00;106330;1259;1012472;-75
2023/06/09 10:14:21;;;;;;;9.50;3.90;;;;;;;-128.00;-1.00;-1.00;106230;1258;1013390;-75
2023/06/09 10:17:09;;;;;;;9.50;3.40;;;;;;;-128.00;-1.00;-1.00;106269;1258;1010076;-71
2023/06/09 10:19:57;;;;;;;9.80;3.60;;;;;;;-128.00;-1.00;-1.00;106312;1258;1012390;-75
2023/06/09 10:22:43;;;;;;;9.70;3.60;;;;;;;-128.00;-1.00;-1.00;106333;1258;1013604;-73
2023/06/09 10:25:32;;;;;;;8.40;3.50;;;;;;;-128.00;-1.00;-1.00;106430;1254;1012878;-71
2023/06/09 10:28:20;;;;;;;9.40;3.30;;;;;;;-128.00;-1.00;-1.00;106511;1254;1012230;-75
2023/06/09 10:31:11;;;;;;;13.10;4.20;;;;;;;-128.00;-1.00;-1.00;106386;1254;1009467;-73
2023/06/09 10:33:58;;;;;;;16.90;4.00;;;;;;;-128.00;-1.00;-1.00;106496;1254;1011084;-73
2023/06/09 10:36:45;;;;;;;10.30;3.90;;;;;;;-128.00;-1.00;-1.00;106502;1254;1012766;-75
2023/06/09 10:40:10;;;;;;;10.50;4.20;;;;;;;-128.00;-1.00;-1.00;106532;1254;1013601;-72
2023/06/09 10:43:29;;;;;;;11.10;4.00;;;;;;;-128.00;-1.00;-1.00;106456;1254;1013357;-73
2023/06/09 10:46:17;;;;;;;10.00;3.60;;;;;;;-128.00;-1.00;-1.00;106649;1254;1010140;-75
2023/06/09 10:49:05;;;;;;;8.30;3.30;;;;;;;-128.00;-1.00;-1.00;106607;1254;1010934;-73
2023/06/09 10:51:53;;;;;;;9.10;3.40;;;;;;;-128.00;-1.00;-1.00;106541;1254;1013117;-74
2023/06/09 10:54:41;;;;;;;9.70;3.70;;;;;;;-128.00;-1.00;-1.00;106313;1259;1012912;-76
2023/06/09 10:57:39;;;;;;;10.90;3.80;;;;;;;-128.00;-1.00;-1.00;106309;1257;1012371;-72
2023/06/09 11:01:03;;;;;;;10.40;3.70;;;;;;;-128.00;-1.00;-1.00;106270;1257;1010372;-73
2023/06/09 11:03:50;;;;;;;10.20;4.10;;;;;;;-128.00;-1.00;-1.00;106350;1257;1010991;-73
2023/06/09 11:07:33;;;;;;;9.40;3.60;;;;;;;-128.00;-1.00;-1.00;106252;1257;1013140;-75
2023/06/09 11:10:25;;;;;;;13.40;3.90;;;;;;;-128.00;-1.00;-1.00;106085;1262;1012366;-76
2023/06/09 11:13:39;;;;;;;9.80;4.30;;;;;;;-128.00;-1.00;-1.00;106088;1262;1012997;-75
2023/06/09 11:16:46;;;;;;;14.40;4.00;;;;;;;-128.00;-1.00;-1.00;106081;1262;1010342;-72
2023/06/09 11:19:34;;;;;;;10.20;4.00;;;;;;;-128.00;-1.00;-1.00;106093;1262;1011153;-71
2023/06/09 11:22:22;;;;;;;10.70;3.90;;;;;;;-128.00;-1.00;-1.00;106000;1262;1012558;-74
2023/06/09 11:25:30;;;;;;;11.20;3.80;;;;;;;-128.00;-1.00;-1.00;106004;1262;1012678;-71
2023/06/09 11:28:19;;;;;;;9.10;3.50;;;;;;;-128.00;-1.00;-1.00;106084;1262;1012755;-73
2023/06/09 11:31:10;;;;;;;10.10;4.00;;;;;;;-128.00;-1.00;-1.00;105997;1262;1009737;-73
2023/06/09 11:33:57;;;;;;;11.90;4.20;;;;;;;-128.00;-1.00;-1.00;106078;1262;1012215;-73
2023/06/09 11:36:48;;;;;;;10.00;3.70;;;;;;;-128.00;-1.00;-1.00;106123;1262;1012738;-72
2023/06/09 11:39:35;;;;;;;10.40;4.00;;;;;;;-128.00;-1.00;-1.00;106218;1261;1011864;-73
2023/06/09 11:42:22;;;;;;;10.80;3.90;;;;;;;-128.00;-1.00;-1.00;106207;1261;1013019;-75
2023/06/09 11:45:12;;;;;;;10.40;3.90;;;;;;;-128.00;-1.00;-1.00;106344;1254;1010079;-72
2023/06/09 11:48:01;;;;;;;11.40;5.00;;;;;;;-128.00;-1.00;-1.00;106451;1254;1010799;-75
2023/06/09 11:50:49;;;;;;;12.10;4.20;;;;;;;-128.00;-1.00;-1.00;106509;1256;1012043;-75
2023/06/09 11:53:38;;;;;;;11.60;4.60;;;;;;;-128.00;-1.00;-1.00;106491;1254;1012182;-76
2023/06/09 11:56:27;;;;;;;10.20;4.30;;;;;;;-128.00;-1.00;-1.00;106394;1254;1013130;-73
2023/06/09 11:59:19;;;;;;;11.20;4.20;;;;;;;-128.00;-1.00;-1.00;106507;1254;1009906;-72
2023/06/09 12:02:25;;;;;;;10.80;4.20;;;;;;;-128.00;-1.00;-1.00;106618;1254;1011360;-71
2023/06/09 12:05:14;;;;;;;11.50;4.30;;;;;;;-128.00;-1.00;-1.00;106611;1254;1012659;-74
2023/06/09 12:08:01;;;;;;;10.70;4.40;;;;;;;-128.00;-1.00;-1.00;106611;1258;1011407;-72
2023/06/09 12:10:48;;;;;;;12.00;4.20;;;;;;;-128.00;-1.00;-1.00;106589;1254;1012555;-73
2023/06/09 12:13:47;;;;;;;10.60;4.10;;;;;;;-128.00;-1.00;-1.00;106550;1254;1009345;-71
2023/06/09 12:16:34;;;;;;;11.30;3.90;;;;;;;-128.00;-1.00;-1.00;106544;1254;1010685;-72
2023/06/09 12:19:21;;;;;;;10.50;4.10;;;;;;;-128.00;-1.00;-1.00;106650;1254;1013110;-72
2023/06/09 12:22:07;;;;;;;11.80;4.10;;;;;;;-128.00;-1.00;-1.00;106487;1254;1012289;-71
2023/06/09 12:24:54;;;;;;;10.80;4.20;;;;;;;-128.00;-1.00;-1.00;106619;1254;1013173;-74
2023/06/09 12:27:41;;;;;;;12.30;3.80;;;;;;;-128.00;-1.00;-1.00;106592;1254;1009869;-72
2023/06/09 12:30:49;;;;;;;10.70;4.00;;;;;;;-128.00;-1.00;-1.00;106538;1254;1011722;-71
2023/06/09 12:33:36;;;;;;;9.20;3.40;;;;;;;-128.00;-1.00;-1.00;106483;1254;1012744;-73
2023/06/09 12:36:25;;;;;;;8.80;3.90;;;;;;;-128.00;-1.00;-1.00;106562;1254;1012784;-72
2023/06/09 12:39:19;;;;;;;10.80;3.70;;;;;;;-128.00;-1.00;-1.00;106498;1254;1012112;-72
2023/06/09 12:42:12;;;;;;;11.60;4.00;;;;;;;-128.00;-1.00;-1.00;106373;1254;1009432;-73
2023/06/09 12:44:59;;;;;;;13.60;4.10;;;;;;;-128.00;-1.00;-1.00;106551;1254;1011660;-74
2023/06/09 12:47:49;;;;;;;8.70;3.70;;;;;;;-128.00;-1.00;-1.00;106524;1259;1013503;-71
2023/06/09 12:50:37;;;;;;;10.70;3.50;;;;;;;-128.00;-1.00;-1.00;106549;1254;1012752;-69
2023/06/09 12:53:23;;;;;;;11.50;3.90;;;;;;;-128.00;-1.00;-1.00;106574;1254;1013546;-75
2023/06/09 12:56:10;;;;;;;9.60;3.50;;;;;;;-128.00;-1.00;-1.00;106585;1254;1009310;-73